Breeze Hill, South Carolina
Current Conditions -  °F | °C
As of 1:53 PM on Friday 31 Oct 2014 (Local Time) from KDNL Reporting Station
Scattered Clouds Scattered Clouds  
Wind Chill: 68°   Ceiling: Unl
Heat Index: 68°   Visibility: 10mi
Dew Point: 44°   Wind: 0mph
Humidity: 42%   Direction: NA
Pressure: 29.84"   Gusts: NA
Location:  33.5159°N, 81.8379°W
Report Text: KDNL 311753Z AUTO 00000KT 10SM FEW065 SCT080 20/07 A2984 RMK AO2 SLP102 T02000067 10206 20100 58028
Loading
Personal Weather Stations






























Interactive Weather Map
Tropical Storm Tracking
New forecast layout! Learn more

10-Day Weather Forecast

Advertisements
Track Severe Weather on mobile